DW8356 Weather Reports


Display with metric or nautical units.
time (UTC)temp
F
wind
direction
speed
MPH
gust
MPH
rain 1hr
in
rain 24hr
in
rain mn
in
humidity
%
barometer
mb
20210301034600 49 33 9.0 15.0 0.11 0.21 0.21 76 1017.3
20210301033204 52 19 1.0 13.0 0.05 0.15 0.15 68 1017.9
20210301030104 52 29 6.0 11.0 0.00 0.10 0.10 63 1016.8
20210301023127 53 324 5.0 14.0 0.00 0.10 0.10 64 1016.3
20210301020113 53 343 8.0 18.0 0.00 0.10 0.10 66 1015.5
20210301014548 53 5 8.0 16.0 0.00 0.10 0.10 70 1015.9
20210301011611 53 326 7.0 16.0 0.00 0.10 0.10 71 1015.3
20210301004620 54 32 6.0 14.0 0.00 0.10 0.10 77 1015.0
20210301003022 54 298 4.0 11.0 0.00 0.10 0.10 79 1015.0
20210301001749 55 332 8.0 13.0 0.00 0.10 0.10 79 1014.6
20210301000012 55 351 7.0 13.0 0.00 0.10 0.10 80 1014.1
20210228234653 56 29 4.0 11.0 0.00 0.10 0.10 81 1013.9
20210228233042 56 16 3.0 11.0 0.00 0.10 0.10 82 1014.0
20210228230035 57 313 4.0 10.0 0.00 0.10 0.10 86 1013.5
20210228223049 56 36 8.0 14.0 0.00 0.10 0.10 87 1012.5
20210228220059 57 332 6.0 14.0 0.00 0.10 0.10 89 1012.0
20210228213052 57 304 12.0 20.0 0.00 0.10 0.10 88 1011.9
20210228210142 58 300 5.0 18.0 0.00 0.10 0.10 91 1012.6
20210228203119 61 341 8.0 16.0 0.01 0.10 0.10 92 1011.8
20210228201521 64 333 9.0 17.0 0.04 0.10 0.10 93 1011.2
20210228200131 65 304 3.0 9.0 0.08 0.10 0.10 94 1011.1
20210228194523 64 334 2.0 5.0 0.08 0.10 0.10 93 1011.2
20210228193133 64 285 2.0 8.0 0.07 0.09 0.09 90 1011.5
20210228191527 66 326 4.0 12.0 0.03 0.05 0.05 88 1011.3
20210228190149 67 301 5.0 10.0 0.00 0.02 0.02 85 1011.5
20210228184527 69 10 1.0 5.0 0.00 0.04 0.02 82 1011.0
20210228183131 73 298 3.0 10.0 0.00 0.04 0.02 80 1011.1
20210228174545 71 149 1.0 8.0 0.02 0.04 0.02 90 1011.7
20210228171615 73 155 2.0 8.0 0.00 0.02 0.00 84 1011.4
20210228170024 74 182 3.0 11.0 0.00 0.02 0.00 85 1011.0
20210228163121 71 240 1.0 7.0 0.00 0.02 0.00 91 1011.4
20210228160053 70 177 0.0 6.0 0.00 0.02 0.00 91 1012.0
20210228153118 70 189 0.0 8.0 0.00 0.02 0.00 93 1012.0
20210228151527 69 174 1.0 6.0 0.00 0.02 0.00 94 1011.6
20210228150047 69 175 0.0 5.0 0.00 0.02 0.00 94 1011.6
20210228143150 68 170 0.0 7.0 0.00 0.02 0.00 96 1011.4
20210228134557 67 174 0.0 8.0 0.00 0.02 0.00 96 1011.6
20210228131641 67 170 1.0 7.0 0.00 0.02 0.00 96 1011.1
20210228130031 67 162 0.0 9.0 0.00 0.02 0.00 96 1011.2
20210228123121 67 172 2.0 7.0 0.00 0.02 0.00 96 1011.0
20210228114725 67 179 0.0 1.0 0.00 0.02 0.00 96 1011.0
20210228111606 67 206 0.0 3.0 0.00 0.02 0.00 96 1010.2
20210228110056 67 173 1.0 7.0 0.00 0.02 0.00 96 1010.1
20210228103106 67 187 1.0 9.0 0.00 0.02 0.00 96 1009.9
20210228101715 67 195 0.0 5.0 0.00 0.02 0.00 96 1009.9
20210228100208 67 186 3.0 9.0 0.00 0.02 0.00 95 1009.7
20210228093123 67 185 0.0 6.0 0.00 0.02 0.00 95 1010.0
20210228090049 67 172 2.0 8.0 0.00 0.02 0.00 95 1010.1
20210228083047 67 170 1.0 9.0 0.00 0.02 0.00 95 1010.4
20210228080033 67 174 1.0 8.0 0.00 0.02 0.00 95 1010.7
20210228073106 66 164 1.0 8.0 0.00 0.02 0.00 95 1010.8
20210228064607 66 173 1.0 7.0 0.00 0.02 0.00 95 1010.7
20210228061614 65 172 1.0 8.0 0.00 0.02 0.00 96 1011.1
20210228053209 64 187 0.0 7.0 0.00 0.02 0.02 96 1010.9
20210228050027 63 190 2.0 8.0 0.00 0.02 0.02 97 1010.8
20210228043028 63 178 0.0 10.0 0.00 0.02 0.02 98 1011.1